PST: 09:21 MST: 10:21 CST: 11:21 EST: 12:21 LDN: 17:21 UTC: 17:21
User Agent: CCBot/2.0 (https://commoncrawl.org/faq/)
IP Address: 3.81.89.248
Hostname: ec2-3-81-89-248.compute-1.amazonaws.com

METAR:
KBFI 041653Z 15006KT 2 1/2SM -RA BR FEW009 BKN017 OVC021 04/03 A3008 RMK AO2 SLP186 P0001 T00390033
KBFI 041553Z 16005KT 2 1/2SM -RA BR SCT009 BKN014 OVC021 04/03 A3007 RMK AO2 SLP183 P0003 T00390033
KBFI 041535Z 15007KT 2 1/2SM -RA BR BKN014 OVC021 04/03 A3007 RMK AO2 P0001 T00390033
KBFI 041533Z COR 15006KT 2 1/2SM -RA BR BKN014 OVC023 04/03 A3007 RMK AO2 P0001 T00390033
KBFI 041453Z 16004KT 5SM -RA BR OVC028 04/03 A3007 RMK AO2 SLP180 P0001 60001 T00390028 50005
KBFI 041353Z 00000KT 10SM -RA SCT014 BKN048 OVC070 04/02 A3007 RMK AO2 RAB49 SLP181 P0000 T00440022

TAF:
KBFI 041501Z 0415/0512 00000KT 5SM -RA OVC025
FM 041800 00000KT 3SM -RA BR SCT006 OVC012
FM 050200 17006KT P6SM SCT015 BKN025 OVC040

KBFI 041138Z 0412/0512 00000KT P6SM OVC050
FM 041600 00000KT P6SM -RA OVC030
FM 041800 00000KT 5SM -RA BR SCT009 OVC015
FM 050200 17006KT P6SM SCT015 BKN025 OVC040

KBFI 040520Z 0406/0506 VRB04KT P6SM OVC120
FM 041000 00000KT P6SM VCSH OVC050
FM 041400 VRB03KT P6SM -RA OVC030
FM 041700 09006KT 5SM -RA BR SCT010 OVC018
FM 042300 04005KT P6SM -SHRA BKN028
FM 050200 VRB04KT P6SM VCSH BKN040

KBFI 040251Z 0403/0424 VRB04KT P6SM OVC100
FM 041000 00000KT P6SM OVC050
FM 041500 VRB03KT P6SM -RA OVC030
FM 041700 36006KT 5SM -RA BR OVC018
FM 042300 34008KT P6SM -SHRA BKN020 BKN040

KBFI 032320Z 0400/0424 35007KT P6SM SCT020 BKN150
FM 040600 02006KT P6SM OVC100
FM 041000 00000KT P6SM OVC050
FM 041500 VRB03KT P6SM -RA OVC030
FM 041700 36006KT 5SM -RA BR OVC018
FM 042300 34008KT P6SM -SHRA BKN020 BKN040

KBFI 031720Z 0318/0418 05004KT P6SM OVC150
FM 040300 VRB03KT P6SM OVC100
FM 041100 VRB03KT P6SM VCSH OVC035